Time;durP1;ratioP1;P1;durP2;ratioP2;P2;SDS_P1;SDS_P2;PMS_P1;PMS_P2;Temp;Humidity;BMP_temperature;BMP_pressure;BME280_temperature;BME280_humidity;BME280_pressure;Samples;Min_cycle;Max_cycle;Signal;HPM_P1;HPM_P2
2022/01/09 00:02:13;;;;;;;22.27;16.27;;;;;;;-4.78;83.12;98502.44;4996374;23;20295;-79
2022/01/09 00:05:05;;;;;;;23.20;16.47;;;;;;;-4.80;83.53;98482.63;4990622;23;20329;-80
2022/01/09 00:07:44;;;;;;;24.27;16.37;;;;;;;-4.75;83.31;98483.00;4962879;23;20205;-80
2022/01/09 00:10:23;;;;;;;24.03;16.97;;;;;;;-4.74;83.52;98482.03;4969920;23;20247;-79
2022/01/09 00:13:05;;;;;;;23.27;16.57;;;;;;;-4.83;83.48;98462.88;5018013;23;20256;-80
2022/01/09 00:15:51;;;;;;;25.93;16.07;;;;;;;-4.84;83.73;98457.78;4975437;23;20217;31
2022/01/09 00:18:33;;;;;;;24.47;17.57;;;;;;;-4.68;83.74;98463.16;4926184;23;20251;-81
2022/01/09 00:22:00;;;;;;;23.97;17.13;;;;;;;-4.70;83.85;98449.41;4991578;23;20212;-81
2022/01/09 00:24:41;;;;;;;25.50;17.40;;;;;;;-4.79;83.74;98453.75;4995593;23;20212;-80
2022/01/09 00:27:25;;;;;;;23.63;16.67;;;;;;;-4.83;83.43;98454.22;5073132;23;20233;-80
2022/01/09 00:29:56;;;;;;;23.67;16.90;;;;;;;-5.03;83.85;98427.41;4984004;23;20232;-81
2022/01/09 00:32:23;;;;;;;24.30;16.80;;;;;;;-5.00;83.46;98437.59;4939990;29;20230;-80
2022/01/09 00:35:30;;;;;;;25.77;16.70;;;;;;;-5.02;84.00;98436.91;4945426;29;20193;-80
2022/01/09 00:38:22;;;;;;;22.60;16.20;;;;;;;-5.03;84.31;98433.47;4968873;23;20304;-80
2022/01/09 00:41:08;;;;;;;22.27;16.13;;;;;;;-5.01;83.23;98428.94;4947527;29;20177;-81
2022/01/09 00:43:40;;;;;;;23.23;16.70;;;;;;;-5.09;84.03;98422.81;4978647;29;20228;-79
2022/01/09 00:46:43;;;;;;;24.47;17.37;;;;;;;-5.06;85.04;98420.72;4978291;29;20213;-80
2022/01/09 00:49:50;;;;;;;21.47;16.63;;;;;;;-5.12;84.38;98415.25;4978481;29;20212;-81
2022/01/09 00:55:54;;;;;;;20.97;15.60;;;;;;;-5.19;84.40;98407.22;4999743;23;20260;-81
2022/01/09 00:58:27;;;;;;;25.77;17.33;;;;;;;-5.27;83.80;98404.53;4951046;23;20237;-80
2022/01/09 01:01:02;;;;;;;25.53;17.00;;;;;;;-5.34;84.10;98395.66;4965024;23;20229;-80
2022/01/09 01:04:09;;;;;;;22.93;16.20;;;;;;;-5.42;84.29;98406.84;4994526;23;20288;-81
2022/01/09 01:06:57;;;;;;;24.43;16.30;;;;;;;-5.40;84.24;98406.69;4965300;23;20249;-80
2022/01/09 01:09:52;;;;;;;22.37;16.73;;;;;;;-5.45;84.66;98404.53;4969820;23;20236;-81
2022/01/09 01:12:55;;;;;;;23.83;16.83;;;;;;;-5.52;84.86;98387.84;5046930;23;20234;-79
2022/01/09 01:15:38;;;;;;;26.03;17.10;;;;;;;-5.49;85.03;98392.75;5120796;23;20223;-81
2022/01/09 01:18:43;;;;;;;35.00;19.77;;;;;;;-5.46;85.06;98384.59;5000851;23;20239;-80
2022/01/09 01:21:37;;;;;;;29.17;18.73;;;;;;;-5.52;85.26;98366.13;5002331;23;20275;-81
2022/01/09 01:24:40;;;;;;;26.97;18.03;;;;;;;-5.43;85.29;98373.06;5010119;23;20220;-81
2022/01/09 01:27:41;;;;;;;28.23;18.87;;;;;;;-5.43;85.60;98365.22;4986925;23;20280;-80
2022/01/09 01:30:59;;;;;;;27.50;18.07;;;;;;;-5.43;85.50;98360.84;5080817;23;20275;-81
2022/01/09 01:33:34;;;;;;;28.00;18.70;;;;;;;-5.48;85.82;98341.38;5074128;23;20227;-80
2022/01/09 01:36:05;;;;;;;26.33;18.30;;;;;;;-5.45;85.61;98344.50;4988203;23;20229;-81
2022/01/09 01:38:47;;;;;;;30.03;19.27;;;;;;;-5.44;86.28;98325.25;5005508;23;20292;-82
2022/01/09 01:41:28;;;;;;;30.10;19.67;;;;;;;-5.35;86.38;98321.75;4974498;23;20264;-79
2022/01/09 01:44:00;;;;;;;28.13;20.63;;;;;;;-5.36;86.77;98320.09;4952504;23;20308;-81
2022/01/09 01:47:32;;;;;;;26.73;19.37;;;;;;;-5.38;86.52;98311.63;4995006;23;20228;-80
2022/01/09 01:51:06;;;;;;;28.50;19.77;;;;;;;-5.36;87.46;98306.22;4993609;23;20239;-81
2022/01/09 01:53:59;;;;;;;30.20;20.03;;;;;;;-5.40;87.29;98284.81;5083143;23;20234;-81
2022/01/09 01:56:40;;;;;;;26.53;19.57;;;;;;;-5.36;87.38;98285.34;5002166;23;20321;-81
2022/01/09 01:59:13;;;;;;;28.87;20.00;;;;;;;-5.38;87.46;98282.06;4980754;28;20197;-80
2022/01/09 02:01:44;;;;;;;29.03;19.63;;;;;;;-5.36;87.35;98285.34;4995550;28;20243;-80
2022/01/09 02:04:31;;;;;;;28.17;19.60;;;;;;;-5.46;86.93;98272.38;4978960;28;20295;-81
2022/01/09 02:07:08;;;;;;;30.27;20.20;;;;;;;-5.39;86.83;98286.47;5016436;23;20231;-81
2022/01/09 02:10:14;;;;;;;29.63;18.63;;;;;;;-5.39;86.80;98299.53;5013881;23;20263;-79
2022/01/09 02:12:41;;;;;;;26.43;19.00;;;;;;;-5.45;86.86;98286.25;4977537;23;20296;-82
2022/01/09 02:19:02;;;;;;;26.13;18.33;;;;;;;-5.45;86.44;98294.06;5160310;23;20239;-79
2022/01/09 02:22:06;;;;;;;27.57;18.43;;;;;;;-5.53;85.67;98286.19;5025841;23;20229;-82
2022/01/09 02:25:00;;;;;;;26.10;18.53;;;;;;;-5.70;85.88;98248.72;4952522;23;20186;-81
2022/01/09 02:27:43;;;;;;;28.50;18.87;;;;;;;-5.58;86.38;98268.38;4968191;23;20256;-83
2022/01/09 02:30:49;;;;;;;29.20;19.43;;;;;;;-5.67;85.65;98255.41;4999971;23;20232;-80
2022/01/09 02:33:47;;;;;;;27.80;19.03;;;;;;;-5.68;86.03;98251.16;4985942;23;20259;-79
2022/01/09 02:36:44;;;;;;;28.77;18.83;;;;;;;-5.76;86.05;98241.50;4987736;23;20256;-80
2022/01/09 02:39:16;;;;;;;28.73;19.40;;;;;;;-5.75;86.21;98232.69;4971599;23;20728;-80
2022/01/09 02:42:29;;;;;;;28.50;19.27;;;;;;;-5.79;86.40;98226.16;4969306;23;20229;-81
2022/01/09 02:45:45;;;;;;;33.57;20.83;;;;;;;-5.77;86.82;98232.03;4974100;23;20257;-81
2022/01/09 02:48:18;;;;;;;32.00;20.67;;;;;;;-5.88;86.84;98214.84;4999849;23;20200;-80
2022/01/09 02:51:02;;;;;;;41.97;23.40;;;;;;;-5.82;86.91;98222.03;4979738;23;20244;-80
2022/01/09 02:57:05;;;;;;;33.57;21.20;;;;;;;-5.95;86.59;98203.38;4981872;23;20315;-79
2022/01/09 02:59:37;;;;;;;31.67;20.57;;;;;;;-5.98;86.49;98195.88;4997965;23;20223;-79
2022/01/09 03:02:45;;;;;;;27.50;18.60;;;;;;;-5.97;87.17;98191.47;5075844;23;20236;-79
2022/01/09 03:05:15;;;;;;;29.90;18.93;;;;;;;-5.95;86.07;98176.47;5081793;23;20498;-81
2022/01/09 03:07:44;;;;;;;30.40;20.20;;;;;;;-5.96;86.11;98167.00;4992929;23;20244;-81
2022/01/09 03:11:00;;;;;;;27.07;19.37;;;;;;;-6.04;86.22;98165.16;4973846;23;20220;31
2022/01/09 03:13:41;;;;;;;28.73;19.13;;;;;;;-6.16;86.21;98150.75;5054248;23;20225;-81
2022/01/09 03:16:13;;;;;;;28.87;18.80;;;;;;;-6.12;86.33;98140.81;4974258;23;20243;-80
2022/01/09 03:19:10;;;;;;;27.70;18.83;;;;;;;-6.00;86.40;98142.22;4947804;23;20254;-80
2022/01/09 03:21:44;;;;;;;30.60;19.23;;;;;;;-6.04;85.76;98144.31;4962519;23;20239;-79
2022/01/09 03:24:42;;;;;;;30.53;19.73;;;;;;;-6.16;85.47;98131.66;5037522;23;20167;-81
2022/01/09 03:27:16;;;;;;;30.70;19.33;;;;;;;-6.17;86.05;98143.06;4981766;28;20259;-82
2022/01/09 03:29:48;;;;;;;28.33;19.33;;;;;;;-6.20;85.67;98141.56;4996326;28;20228;-86
2022/01/09 03:32:40;;;;;;;29.43;20.23;;;;;;;-6.25;86.10;98128.97;4998380;28;20208;-80
2022/01/09 03:35:44;;;;;;;29.23;19.73;;;;;;;-6.24;86.33;98132.41;5083530;23;20251;-79
2022/01/09 03:38:33;;;;;;;29.87;19.83;;;;;;;-6.36;86.61;98124.00;4997816;28;20275;-81
2022/01/09 03:41:07;;;;;;;32.00;19.37;;;;;;;-6.36;87.11;98118.81;4993653;23;20295;-79
2022/01/09 03:43:40;;;;;;;29.20;19.00;;;;;;;-6.35;87.05;98114.41;5002802;23;20224;-80
2022/01/09 03:46:13;;;;;;;27.57;18.93;;;;;;;-6.32;87.38;98111.50;4981263;23;20203;-79
2022/01/09 03:48:53;;;;;;;29.77;19.90;;;;;;;-6.32;86.87;98111.50;4983944;23;20220;-79
2022/01/09 03:51:39;;;;;;;29.60;18.97;;;;;;;-6.35;86.71;98104.81;4973612;23;20232;-80
2022/01/09 03:54:42;;;;;;;28.23;18.73;;;;;;;-6.36;86.56;98108.38;4983530;23;20248;-79
2022/01/09 03:57:47;;;;;;;26.80;18.67;;;;;;;-6.19;87.15;98104.09;4988457;23;20255;-79
2022/01/09 04:00:43;;;;;;;26.83;18.53;;;;;;;-6.44;86.76;98076.22;4992533;23;20237;-80
2022/01/09 04:03:22;;;;;;;27.30;18.97;;;;;;;-6.32;86.66;98090.63;4997107;23;21294;-80
2022/01/09 04:05:54;;;;;;;27.70;18.47;;;;;;;-6.41;87.09;98053.28;4986226;23;20209;31
2022/01/09 04:12:58;;;;;;;27.50;18.60;;;;;;;-6.44;86.72;98060.59;4964199;23;20301;-80
2022/01/09 04:15:52;;;;;;;30.70;19.93;;;;;;;-6.32;86.66;98062.78;4996971;23;20236;-79
2022/01/09 04:18:29;;;;;;;30.53;19.40;;;;;;;-6.37;85.86;98059.00;4997671;28;20215;-80
2022/01/09 04:22:16;;;;;;;28.40;18.53;;;;;;;-6.43;86.76;98062.19;4997935;28;20184;-82
2022/01/09 04:24:51;;;;;;;29.33;19.17;;;;;;;-6.50;86.81;98040.34;4973811;23;20279;-80
2022/01/09 04:30:32;;;;;;;30.30;19.17;;;;;;;-6.33;86.81;98055.13;4938589;23;20292;-80
2022/01/09 04:33:59;;;;;;;29.87;18.93;;;;;;;-6.35;86.49;98049.25;4327350;23;18052930;-80
2022/01/09 04:36:27;;;;;;;27.57;18.40;;;;;;;-6.36;86.51;98045.00;4919351;29;20215;-79
2022/01/09 04:38:57;;;;;;;30.17;18.73;;;;;;;-6.32;86.54;98046.34;5027392;23;20229;-79
2022/01/09 04:41:37;;;;;;;29.73;18.43;;;;;;;-6.36;86.21;98038.00;4938064;29;20221;-79
2022/01/09 04:44:09;;;;;;;27.57;18.47;;;;;;;-6.24;86.38;98049.81;4961076;23;20253;-84
2022/01/09 04:47:02;;;;;;;27.70;19.13;;;;;;;-6.28;86.54;98045.88;4979580;23;20230;-79
2022/01/09 04:49:48;;;;;;;26.57;18.00;;;;;;;-6.23;86.81;98045.41;4904729;29;20211;-79
2022/01/09 04:52:23;;;;;;;28.27;18.60;;;;;;;-6.22;86.65;98041.84;4962921;23;20265;-80
2022/01/09 04:55:13;;;;;;;28.63;19.03;;;;;;;-6.21;86.78;98043.50;5014957;23;20228;-78
2022/01/09 04:58:04;;;;;;;26.40;18.53;;;;;;;-6.21;86.66;98035.69;4968431;23;20216;-80
2022/01/09 05:00:33;;;;;;;24.77;17.60;;;;;;;-6.19;86.76;98035.50;4974875;28;20213;-81
2022/01/09 05:03:37;;;;;;;28.87;18.73;;;;;;;-6.19;87.21;98022.47;4988621;23;20236;-79
2022/01/09 05:06:33;;;;;;;26.13;17.70;;;;;;;-6.14;87.23;98026.25;4978408;28;20220;-82
2022/01/09 05:09:23;;;;;;;27.27;18.37;;;;;;;-6.14;86.99;98009.78;4995462;28;20211;-81
2022/01/09 05:11:53;;;;;;;27.77;18.03;;;;;;;-6.05;87.13;98024.50;5138419;23;20268;-80
2022/01/09 05:17:59;;;;;;;27.80;18.43;;;;;;;-6.12;86.91;98007.84;5237434;22;20551;-81
2022/01/09 05:20:27;;;;;;;27.83;18.37;;;;;;;-6.06;86.61;98013.25;5132121;27;20168;-81
2022/01/09 05:22:58;;;;;;;28.87;18.33;;;;;;;-6.06;86.69;98013.25;5131220;28;20276;-82
2022/01/09 05:25:26;;;;;;;26.40;18.67;;;;;;;-6.05;86.48;98014.09;5122603;22;20238;-81
2022/01/09 05:28:10;;;;;;;25.47;18.07;;;;;;;-6.11;86.55;98007.69;5123485;22;20220;-80
2022/01/09 05:30:37;;;;;;;27.27;19.23;;;;;;;-6.16;86.43;98003.94;5089507;28;20233;-80
2022/01/09 05:33:07;;;;;;;26.77;18.07;;;;;;;-6.19;86.56;97991.19;5121055;22;20287;-80
2022/01/09 05:35:40;;;;;;;28.63;18.90;;;;;;;-6.10;86.74;98011.13;5095504;22;20224;-81
2022/01/09 05:38:32;;;;;;;25.40;17.93;;;;;;;-6.09;86.51;97997.94;5109567;22;20208;-81
2022/01/09 05:41:12;;;;;;;27.60;18.53;;;;;;;-6.11;86.77;98005.06;5110885;28;20192;-81
2022/01/09 05:43:41;;;;;;;26.73;19.43;;;;;;;-6.16;86.76;97996.13;5095895;22;20316;-81
2022/01/09 05:46:20;;;;;;;26.17;18.70;;;;;;;-6.09;86.60;98008.38;5097013;22;20277;-81
2022/01/09 05:48:58;;;;;;;29.43;18.57;;;;;;;-6.10;86.30;98005.91;5098619;22;20173;-80
2022/01/09 05:51:44;;;;;;;26.30;17.97;;;;;;;-6.21;86.36;97988.75;5112517;22;20215;-80
2022/01/09 05:54:13;;;;;;;25.73;18.33;;;;;;;-6.09;86.01;98010.97;5107744;28;20251;-81
2022/01/09 05:56:42;;;;;;;25.50;17.87;;;;;;;-6.13;86.05;98019.25;5089589;22;20324;-81
2022/01/09 05:59:18;;;;;;;30.57;18.67;;;;;;;-6.13;86.66;98016.66;5092306;22;20288;-80
2022/01/09 06:02:14;;;;;;;26.90;18.90;;;;;;;-6.21;87.20;97993.16;5112195;22;20227;-80
2022/01/09 06:05:20;;;;;;;28.00;19.23;;;;;;;-6.15;87.35;98010.75;5115026;22;20208;-80
2022/01/09 06:07:51;;;;;;;26.47;18.87;;;;;;;-6.10;86.81;98008.50;5069186;28;20237;-79
2022/01/09 06:10:50;;;;;;;28.93;18.63;;;;;;;-6.07;87.21;98010.81;5068978;28;20190;-80
2022/01/09 06:13:26;;;;;;;27.30;18.97;;;;;;;-6.02;86.84;97992.94;5102317;28;20235;-82
2022/01/09 06:15:58;;;;;;;25.47;18.00;;;;;;;-6.05;86.44;97981.00;5113657;22;20248;-81
2022/01/09 06:18:42;;;;;;;27.10;18.47;;;;;;;-6.02;86.99;97993.72;5028262;28;20226;-83
2022/01/09 06:21:34;;;;;;;28.27;18.87;;;;;;;-5.94;86.70;97987.75;5030434;28;20194;-80
2022/01/09 06:24:06;;;;;;;30.33;20.37;;;;;;;-5.92;86.96;97983.19;5278538;22;20224;-80
2022/01/09 06:26:47;;;;;;;26.47;17.93;;;;;;;-5.92;87.05;97981.38;5071292;28;20198;-81
2022/01/09 06:29:25;;;;;;;28.20;18.60;;;;;;;-5.89;87.12;97986.31;5056430;28;20233;-81
2022/01/09 06:31:53;;;;;;;27.20;18.27;;;;;;;-6.03;87.06;97960.00;5063566;22;20234;-80
2022/01/09 06:34:23;;;;;;;27.83;18.40;;;;;;;-5.85;87.02;97971.94;5067272;23;20220;-81
2022/01/09 06:37:18;;;;;;;24.03;16.80;;;;;;;-5.87;86.09;97973.09;5099221;22;20527;-82
2022/01/09 06:40:03;;;;;;;25.30;17.17;;;;;;;-5.82;86.46;97978.63;5100114;22;20255;-80
2022/01/09 06:42:35;;;;;;;25.30;17.93;;;;;;;-5.83;86.35;97963.94;5078622;22;20229;-80
2022/01/09 06:45:12;;;;;;;25.60;17.93;;;;;;;-5.81;86.53;97965.44;5078610;28;20221;-81
2022/01/09 06:47:57;;;;;;;24.57;16.80;;;;;;;-5.74;86.59;97978.69;5093383;28;20217;-82
2022/01/09 06:50:47;;;;;;;24.47;17.20;;;;;;;-5.77;86.27;97965.94;5072753;28;20298;-82
2022/01/09 06:53:17;;;;;;;24.57;16.93;;;;;;;-5.67;86.42;97977.06;5089601;28;20188;-80
2022/01/09 06:55:59;;;;;;;23.80;16.80;;;;;;;-5.70;86.51;97966.13;5081368;22;20233;-81
2022/01/09 06:58:37;;;;;;;25.40;17.37;;;;;;;-5.69;86.47;97967.78;5072703;28;20225;-80
2022/01/09 07:01:08;;;;;;;25.60;16.87;;;;;;;-5.63;86.20;97973.16;5073978;28;20227;-80
2022/01/09 07:03:47;;;;;;;24.60;16.87;;;;;;;-5.48;86.59;97978.59;5075768;28;20217;-81
2022/01/09 07:06:15;;;;;;;25.03;17.03;;;;;;;-5.47;86.28;97978.44;5056765;28;20240;-81
2022/01/09 07:09:08;;;;;;;22.50;16.80;;;;;;;-5.40;85.55;97997.69;5185288;22;20262;-82
2022/01/09 07:11:58;;;;;;;24.83;16.77;;;;;;;-5.39;85.16;97993.31;5079857;22;20239;-82
2022/01/09 07:14:27;;;;;;;22.57;16.20;;;;;;;-5.37;85.63;97978.31;5077329;28;20287;-81
2022/01/09 07:17:01;;;;;;;29.87;17.67;;;;;;;-5.21;86.42;97988.78;5093747;22;20221;-81
2022/01/09 07:19:35;;;;;;;25.80;17.33;;;;;;;-5.21;85.61;97978.34;5096557;22;20208;-81
2022/01/09 07:22:02;;;;;;;22.57;16.93;;;;;;;-5.09;85.13;97994.53;5076371;22;20600;-80
2022/01/09 07:24:49;;;;;;;25.23;17.57;;;;;;;-4.99;85.53;98006.44;5035096;28;20245;-81
2022/01/09 07:27:42;;;;;;;22.40;16.93;;;;;;;-4.88;85.28;98032.25;5036063;28;20227;-81
2022/01/09 07:30:27;;;;;;;25.77;17.53;;;;;;;-4.81;85.67;98029.00;5058941;22;20230;-79
2022/01/09 07:32:57;;;;;;;24.57;18.07;;;;;;;-4.57;85.57;98042.06;5071899;23;20230;-80
2022/01/09 07:35:44;;;;;;;26.20;18.00;;;;;;;-4.54;84.77;98041.75;5067047;22;20264;-80
2022/01/09 07:38:29;;;;;;;24.43;17.50;;;;;;;-4.40;85.21;98048.13;5075378;28;20221;-80
2022/01/09 07:41:43;;;;;;;26.17;18.43;;;;;;;-4.23;85.90;98054.97;5069563;22;20241;-80
2022/01/09 07:44:36;;;;;;;25.57;18.47;;;;;;;-4.16;85.04;98038.50;5084053;22;20255;-80
2022/01/09 07:47:04;;;;;;;25.20;17.60;;;;;;;-4.05;84.47;98047.78;5096298;28;20197;-81
2022/01/09 07:49:35;;;;;;;23.67;18.23;;;;;;;-4.02;84.83;98040.44;5097624;28;20239;-81
2022/01/09 07:52:13;;;;;;;25.07;18.10;;;;;;;-3.85;84.72;98058.69;5095328;28;20182;-81
2022/01/09 07:54:42;;;;;;;23.30;17.60;;;;;;;-3.73;84.45;98052.94;5096199;28;20213;-80
2022/01/09 07:57:42;;;;;;;23.73;17.73;;;;;;;-3.67;84.17;98040.97;5096207;28;20251;-80
2022/01/09 08:00:34;;;;;;;22.60;17.63;;;;;;;-3.53;83.69;98063.03;5095507;28;20169;-80
2022/01/09 08:03:37;;;;;;;21.03;17.40;;;;;;;-3.55;83.27;98052.75;5096219;28;20149;-80
2022/01/09 08:06:33;;;;;;;26.97;17.80;;;;;;;-3.44;83.19;98059.38;5094867;28;20184;-80
2022/01/09 08:09:20;;;;;;;23.17;16.63;;;;;;;-3.35;82.98;98037.44;5084621;28;20280;-80
2022/01/09 08:11:50;;;;;;;24.00;17.80;;;;;;;-3.31;83.01;98036.13;5094377;28;20185;-80
2022/01/09 08:14:25;;;;;;;20.87;16.90;;;;;;;-3.20;81.79;98040.97;5095558;28;20232;-79
2022/01/09 08:17:13;;;;;;;23.23;16.77;;;;;;;-3.14;81.86;98042.91;5094542;28;20216;-80
2022/01/09 08:20:02;;;;;;;23.67;17.07;;;;;;;-3.01;80.55;98053.63;5094076;28;20189;-80
2022/01/09 08:22:55;;;;;;;22.23;17.03;;;;;;;-3.08;81.31;98044.03;5094047;28;20204;-80
2022/01/09 08:25:47;;;;;;;26.20;18.77;;;;;;;-3.00;80.87;98043.97;5095148;28;20181;-81
2022/01/09 08:28:28;;;;;;;23.47;17.70;;;;;;;-3.06;80.09;98029.75;5095339;28;20192;-80
2022/01/09 08:30:55;;;;;;;21.77;16.70;;;;;;;-3.12;79.93;98051.41;5093465;28;20243;-80
2022/01/09 08:33:27;;;;;;;33.37;25.10;;;;;;;-3.03;80.88;98049.56;5059928;28;20220;-80
2022/01/09 08:36:04;;;;;;;31.97;24.17;;;;;;;-3.13;80.95;98032.22;5094614;28;20231;-80
2022/01/09 08:38:33;;;;;;;29.97;21.37;;;;;;;-2.92;80.85;98047.38;5094843;28;20264;-81
2022/01/09 08:41:52;;;;;;;34.77;25.30;;;;;;;-2.94;80.48;98038.84;5094391;28;20220;-80
2022/01/09 08:44:23;;;;;;;26.27;18.30;;;;;;;-2.96;80.75;98029.53;5093364;28;20263;-80
2022/01/09 08:46:55;;;;;;;25.37;17.87;;;;;;;-3.04;81.63;98017.31;5096561;28;20150;-80
2022/01/09 08:49:44;;;;;;;24.33;17.67;;;;;;;-2.95;81.70;98016.28;5096079;28;20193;-80
2022/01/09 08:52:38;;;;;;;22.60;16.90;;;;;;;-2.91;82.01;98021.97;5095555;28;20180;-80
2022/01/09 08:55:27;;;;;;;22.90;17.13;;;;;;;-2.71;81.61;98025.78;5095437;28;20231;-80
2022/01/09 08:57:57;;;;;;;25.87;19.33;;;;;;;-2.62;81.74;98029.97;5093681;28;20232;-80
2022/01/09 09:00:34;;;;;;;23.83;17.97;;;;;;;-2.50;82.01;98033.81;5092260;28;20276;-80
2022/01/09 09:03:22;;;;;;;23.80;16.87;;;;;;;-2.36;82.13;98035.66;5092160;28;20220;-80
2022/01/09 09:06:18;;;;;;;23.70;18.43;;;;;;;-2.28;81.81;98051.31;5093522;28;20189;-80
2022/01/09 09:08:46;;;;;;;52.47;34.87;;;;;;;-2.13;81.42;98051.38;5090691;28;20251;-80
2022/01/09 09:11:29;;;;;;;45.60;27.67;;;;;;;-2.19;81.27;98043.41;5092250;28;20165;-80
2022/01/09 09:14:02;;;;;;;27.57;19.70;;;;;;;-2.04;81.13;98066.03;5091256;28;20224;-80
2022/01/09 09:16:42;;;;;;;28.63;19.70;;;;;;;-1.94;80.90;98043.00;5094465;22;20217;-80
2022/01/09 09:19:10;;;;;;;25.03;18.80;;;;;;;-1.94;79.73;98063.19;5089261;22;20235;-80
2022/01/09 09:21:46;;;;;;;24.43;17.87;;;;;;;-1.79;80.22;98071.91;5092048;22;20244;-80
2022/01/09 09:24:37;;;;;;;30.97;24.20;;;;;;;-1.70;80.38;98055.06;5176821;22;20221;-80
2022/01/09 09:27:09;;;;;;;29.17;23.73;;;;;;;-1.43;79.29;98069.38;5107823;22;20237;-80
2022/01/09 09:29:50;;;;;;;23.73;18.20;;;;;;;-1.27;78.60;98087.59;5069492;28;20237;-80
2022/01/09 09:32:35;;;;;;;20.60;16.10;;;;;;;-1.04;78.15;98077.78;5072191;28;20228;-80
2022/01/09 09:35:27;;;;;;;25.93;17.90;;;;;;;-0.98;76.84;98061.25;5072457;28;20291;-80
2022/01/09 09:38:23;;;;;;;20.13;16.20;;;;;;;-0.74;76.32;98075.88;5072359;28;20232;-80
2022/01/09 09:40:52;;;;;;;20.77;16.27;;;;;;;-0.71;76.44;98088.69;5081432;22;20233;-80
2022/01/09 09:43:51;;;;;;;19.63;15.70;;;;;;;-0.69;76.10;98084.03;5064228;22;20241;-80
2022/01/09 09:46:22;;;;;;;18.57;15.33;;;;;;;-0.69;75.27;98083.22;5081725;22;20687;-80
2022/01/09 09:48:58;;;;;;;19.93;15.67;;;;;;;-0.71;75.41;98086.06;5091773;22;20225;-80
2022/01/09 09:51:30;;;;;;;19.43;15.53;;;;;;;-0.54;75.44;98089.25;5093218;22;20240;-80
2022/01/09 09:54:16;;;;;;;23.43;16.53;;;;;;;-0.75;75.22;98091.88;5092661;28;20189;-80
2022/01/09 09:57:06;;;;;;;20.60;15.60;;;;;;;-0.58;74.94;98103.78;5078988;28;20221;-80
2022/01/09 09:59:49;;;;;;;22.27;16.30;;;;;;;-0.57;74.63;98100.16;5106401;22;20233;-81
2022/01/09 10:02:51;;;;;;;19.00;15.53;;;;;;;-0.53;74.64;98109.31;5118439;22;20218;-80
2022/01/09 10:05:48;;;;;;;21.63;16.90;;;;;;;-0.41;74.27;98120.16;5118123;28;20210;-80
2022/01/09 10:08:51;;;;;;;19.00;16.30;;;;;;;-0.50;73.04;98107.13;5122504;22;20227;-80
2022/01/09 10:11:24;;;;;;;19.97;16.03;;;;;;;-0.33;73.76;98126.13;5125101;22;20232;-80
2022/01/09 10:14:33;;;;;;;21.43;17.10;;;;;;;-0.19;73.52;98119.19;5131617;22;20660;-80
2022/01/09 10:17:43;;;;;;;21.13;18.40;;;;;;;-0.14;72.93;98109.69;5077975;28;20203;-80
2022/01/09 10:20:27;;;;;;;43.20;38.47;;;;;;;-0.10;72.13;98110.97;5115911;22;20215;-80
2022/01/09 10:23:08;;;;;;;41.10;35.33;;;;;;;-0.06;71.71;98093.78;5105838;22;20235;-80
2022/01/09 10:25:42;;;;;;;24.70;21.87;;;;;;;-0.05;72.09;98086.72;5123672;22;20230;-80
2022/01/09 10:28:40;;;;;;;22.20;18.20;;;;;;;0.07;72.65;98087.00;5110028;22;20229;-80
2022/01/09 10:31:51;;;;;;;19.50;16.17;;;;;;;0.24;71.14;98104.97;5136185;22;20244;-80
2022/01/09 10:35:40;;;;;;;18.07;14.13;;;;;;;0.14;69.13;98093.16;5124195;22;20219;-80
2022/01/09 10:38:35;;;;;;;18.90;15.27;;;;;;;0.22;70.34;98085.91;5116748;28;20230;-80
2022/01/09 10:41:25;;;;;;;18.43;15.10;;;;;;;0.21;70.98;98101.91;5113889;22;20249;-80
2022/01/09 10:44:34;;;;;;;19.07;15.70;;;;;;;0.09;70.62;98096.34;5107045;22;20184;-80
2022/01/09 10:47:17;;;;;;;21.67;16.97;;;;;;;0.03;69.29;98080.47;5101253;22;20248;-80
2022/01/09 10:50:38;;;;;;;31.13;20.53;;;;;;;0.28;70.96;98122.00;5107619;22;20256;-81
2022/01/09 10:53:46;;;;;;;27.57;18.30;;;;;;;0.36;71.46;98111.34;5113007;28;20220;-81
2022/01/09 10:56:39;;;;;;;22.43;16.30;;;;;;;0.44;70.22;98103.28;5124007;22;20234;-80
2022/01/09 10:59:09;;;;;;;30.63;23.90;;;;;;;0.44;70.90;98110.38;5131934;22;20172;-80
2022/01/09 11:01:37;;;;;;;33.60;29.30;;;;;;;0.52;69.71;98093.59;5100570;22;20232;-79
2022/01/09 11:04:26;;;;;;;32.23;24.80;;;;;;;0.41;70.34;98093.16;5089871;22;21607;-80
2022/01/09 11:07:10;;;;;;;24.00;17.80;;;;;;;0.49;70.19;98115.88;5125468;22;20224;-79
2022/01/09 11:09:48;;;;;;;31.23;19.30;;;;;;;0.66;70.62;98111.94;5111432;22;20228;-79
2022/01/09 11:12:47;;;;;;;22.10;16.63;;;;;;;0.71;70.43;98120.09;5102051;28;20179;-80
2022/01/09 11:15:35;;;;;;;20.47;15.87;;;;;;;0.68;70.42;98107.31;5123246;22;20635;-80
2022/01/09 11:18:03;;;;;;;20.87;16.47;;;;;;;0.75;70.98;98086.22;5124226;22;20202;-80
2022/01/09 11:21:06;;;;;;;18.60;15.87;;;;;;;0.88;68.70;98100.31;5129759;22;20212;-79
2022/01/09 11:24:32;;;;;;;20.53;16.53;;;;;;;0.95;69.82;98113.53;5090978;22;20241;-80
2022/01/09 11:27:38;;;;;;;22.57;17.53;;;;;;;1.15;69.41;98081.97;5085928;28;20227;-80
2022/01/09 11:30:50;;;;;;;20.70;16.23;;;;;;;0.99;69.88;98098.94;5118846;22;20291;-80
2022/01/09 11:34:29;;;;;;;22.50;18.03;;;;;;;1.08;69.57;98100.41;5114865;22;20228;-80
2022/01/09 11:37:10;;;;;;;20.73;16.80;;;;;;;1.27;67.71;98093.56;5103298;28;20216;-80
2022/01/09 11:40:01;;;;;;;21.07;16.10;;;;;;;1.28;67.75;98096.03;5115836;28;20287;-80
2022/01/09 11:43:16;;;;;;;22.17;16.63;;;;;;;1.52;67.90;98107.06;5115407;28;20228;-80
2022/01/09 11:45:52;;;;;;;19.30;16.03;;;;;;;1.55;66.33;98101.38;5107720;28;20227;-80
2022/01/09 11:48:55;;;;;;;19.90;15.80;;;;;;;1.82;66.82;98100.41;5111864;28;20291;-80
2022/01/09 11:51:58;;;;;;;20.70;17.07;;;;;;;2.05;66.93;98100.06;5127302;22;20251;-80
2022/01/09 11:54:51;;;;;;;21.40;16.67;;;;;;;2.29;65.78;98096.00;5120834;22;20222;-80
2022/01/09 11:57:47;;;;;;;19.53;16.17;;;;;;;2.41;65.07;98120.78;5081173;22;20232;-80
2022/01/09 12:00:33;;;;;;;20.20;15.37;;;;;;;2.36;65.08;98121.41;5121491;22;20238;-80
2022/01/09 12:03:28;;;;;;;18.10;14.63;;;;;;;2.36;63.98;98110.84;5181765;22;20212;-79
2022/01/09 12:06:17;;;;;;;18.00;15.23;;;;;;;2.18;64.53;98115.91;5100593;22;21437;-79
2022/01/09 12:08:57;;;;;;;19.90;15.37;;;;;;;2.25;64.53;98131.75;5099048;28;20260;-80
2022/01/09 12:12:03;;;;;;;19.00;15.13;;;;;;;2.03;65.24;98134.59;5114916;28;20243;-79
2022/01/09 12:14:55;;;;;;;19.30;14.63;;;;;;;1.72;65.19;98124.59;5121241;22;20208;-79
2022/01/09 12:17:48;;;;;;;18.83;15.80;;;;;;;1.91;65.65;98107.16;5111251;22;20233;-80
2022/01/09 12:20:47;;;;;;;36.57;26.90;;;;;;;2.11;65.50;98115.09;5106251;22;20235;-79
2022/01/09 12:23:21;;;;;;;21.23;15.43;;;;;;;2.25;65.30;98103.50;5113807;22;20324;-80
2022/01/09 12:25:59;;;;;;;19.87;16.00;;;;;;;2.15;64.43;98092.53;5079039;23;20638;-79
2022/01/09 12:28:51;;;;;;;31.03;25.50;;;;;;;2.36;64.35;98116.13;5102430;22;20222;-80
2022/01/09 12:31:28;;;;;;;39.97;31.20;;;;;;;2.46;64.13;98121.81;5094235;28;20196;-79
2022/01/09 12:34:02;;;;;;;19.37;16.80;;;;;;;2.45;64.52;98117.53;5126349;22;20219;-79
2022/01/09 12:36:57;;;;;;;17.10;14.37;;;;;;;2.46;64.13;98107.78;5100660;28;20212;-80
2022/01/09 12:39:28;;;;;;;20.63;16.27;;;;;;;2.60;64.49;98128.72;5073708;28;20279;-79
2022/01/09 12:42:08;;;;;;;19.80;16.13;;;;;;;2.54;63.20;98113.66;5094689;28;20641;-79
2022/01/09 12:44:38;;;;;;;20.57;16.03;;;;;;;2.61;63.86;98103.88;5094229;28;20287;-80
2022/01/09 12:47:09;;;;;;;18.53;16.50;;;;;;;2.74;63.38;98120.75;5100278;22;20229;-79
2022/01/09 12:49:36;;;;;;;18.60;15.67;;;;;;;2.60;64.00;98102.28;5073943;28;20232;-79
2022/01/09 12:52:23;;;;;;;21.23;15.53;;;;;;;2.76;63.58;98124.00;5092011;28;20211;-79
2022/01/09 12:55:17;;;;;;;20.17;16.27;;;;;;;2.93;63.44;98119.91;5130294;22;20227;-79
2022/01/09 12:58:10;;;;;;;22.90;17.13;;;;;;;2.97;62.95;98105.25;5102008;22;20240;-79
2022/01/09 13:00:41;;;;;;;20.97;17.50;;;;;;;2.99;62.16;98116.41;5113930;28;20222;-80
2022/01/09 13:03:08;;;;;;;21.10;17.33;;;;;;;2.96;63.95;98119.47;5096611;28;20176;-79
2022/01/09 13:06:00;;;;;;;23.20;18.10;;;;;;;3.03;63.77;98115.78;5096350;28;20200;-79
2022/01/09 13:08:49;;;;;;;19.77;16.00;;;;;;;3.06;63.73;98133.09;5126267;22;20220;-79